Terminal Aerodrome Forecast
Issued by NWS

Home | Current Version | Previous Version | Graphics & Text | Print | Product List | Glossary On
Versions: 1 2 3 4 5 6 7 8 9 10 11 12 13 14 15 16 17
000
FTUS43 KGRB 251700 AAA
TAFCWA
TAF AMD
KCWA 251748Z 2518/2618 19010KT P6SM BKN018 OVC050
     FM260600 23004KT 5SM BR SCT009 OVC015
     FM260900 27003KT 3SM BR OVC009
     FM261300 29008KT P6SM BKN015
     FM261700 28008KT P6SM SCT030=

USA.gov is the U.S. government's official web portal to all federal, state and local government web resources and services.